Latest Coastal Weather Observations for Noarlunga

IDS60701

Issued at 9:11 am CDT Thursday 14 December 2017 (issued every 10 minutes, with the page automatically refreshed every 10 minutes)

About coastal observations | Map of coastal stations | Coastal observations for SA | Marine services | Other Formats
Station Details ID: 023885 Name: NOARLUNGA Lat: -35.16 Lon: 138.51 Height: 55.0 m
Data from the previous 72 hours. | See also: Recent months at Noarlunga
Date/Time
CDT
Temp
°C
Wind Pressure Rain since
9am
mm
Weather Cloud Vis
km
Sea
Height
m
Swell
Dir  Spd
kts
Gust
kts
hPa Trend Height
m
Period
s
Dir
14/09:00am 17.7 SW 5 10 - - 0.6 - - - - - - -
14/08:30am 17.1 SW 6 11 - - 0.6 - - - - - - -
14/08:00am 17.2 SW 6 11 - - 0.6 - - - - - - -
14/07:30am 17.6 SSW 3 4 - - 0.0 - - - - - - -
14/07:00am 18.0 SW 4 6 - - 0.0 - - - - - - -
14/06:30am 18.2 SSE 3 4 - - 0.0 - - - - - - -
14/06:00am 18.2 S 4 5 - - 0.0 - - - - - - -
14/05:30am 18.3 SSW 4 6 - - 0.0 - - - - - - -
14/05:00am 18.1 S 3 5 - - 0.0 - - - - - - -
14/04:30am 18.1 S 3 7 - - 0.0 - - - - - - -
14/04:00am 17.8 S 4 5 - - 0.0 - - - - - - -
14/03:30am 17.7 S 3 5 - - 0.0 - - - - - - -
14/03:00am 17.8 WSW 5 10 - - 0.0 - - - - - - -
14/02:30am 18.2 WSW 5 8 - - 0.0 - - - - - - -
14/02:00am 18.4 WSW 7 10 - - 0.0 - - - - - - -
14/01:30am 18.6 CALM 0 0 - - 0.0 - - - - - - -
14/01:00am 18.8 WNW 2 3 - - 0.0 - - - - - - -
14/12:30am 19.1 WNW 3 3 - - 0.0 - - - - - - -
14/12:00am 19.5 WNW 3 5 - - 0.0 - - - - - - -
 
Date/Time
CDT
Temp
°C
Wind Pressure Rain since
9am
mm
Weather Cloud Vis
km
Sea
Height
m
Swell
Dir  Spd
kts
Gust
kts
hPa Trend Height
m
Period
s
Dir
13/11:30pm 19.8 WNW 3 4 - - 0.0 - - - - - - -
13/11:00pm 20.0 NW 2 4 - - 0.0 - - - - - - -
13/10:30pm 20.5 SSW 2 5 - - 0.0 - - - - - - -
13/10:00pm 20.7 S 1 2 - - 0.0 - - - - - - -
13/09:30pm 20.6 SSE 3 4 - - 0.0 - - - - - - -
13/09:00pm 20.6 SSE 3 6 - - 0.0 - - - - - - -
13/08:30pm 21.0 SSW 6 10 - - 0.0 - - - - - - -
13/08:00pm 22.0 SW 6 9 - - 0.0 - - - - - - -
13/07:30pm 24.8 WSW 4 7 - - 0.0 - - - - - - -
13/07:00pm 24.1 WSW 1 3 - - 0.0 - - - - - - -
13/06:30pm 25.1 W 3 5 - - 0.0 - - - - - - -
13/06:00pm 25.1 NW 4 8 - - 0.0 - - - - - - -
13/05:30pm 28.1 W 4 9 - - 0.0 - - - - - - -
13/05:00pm 27.4 SSW 2 5 - - 0.0 - - - - - - -
13/04:30pm 27.3 WSW 4 8 - - 0.0 - - - - - - -
13/04:00pm 27.9 W 5 10 - - 0.0 - - - - - - -
13/03:30pm 29.4 W 3 5 - - 0.0 - - - - - - -
13/03:00pm 29.8 SW 4 6 - - 0.0 - - - - - - -
13/02:30pm 30.6 WSW 5 8 - - 0.0 - - - - - - -
13/02:00pm 31.6 WSW 6 12 - - 0.0 - - - - - - -
13/01:30pm 32.0 W 6 10 - - 0.0 - - - - - - -
13/01:00pm 32.0 NW 2 5 - - 0.0 - - - - - - -
13/12:30pm 30.7 SSW 3 6 - - 0.0 - - - - - - -
13/12:00pm 29.4 SW 7 14 - - 0.0 - - - - - - -
13/11:30am 30.5 WNW 12 19 - - 0.0 - - - - - - -
13/11:23am 31.0 NW 13 20 - - 0.0 - - - - - - -
13/11:00am 36.5 N 14 23 - - 0.0 - - - - - - -
13/10:30am 37.4 N 15 21 - - 0.0 - - - - - - -
13/10:00am 35.3 NNE 9 14 - - 0.0 - - - - - - -
13/09:30am 33.3 NNE 11 16 - - 0.0 - - - - - - -
13/09:00am 33.3 N 14 20 - - 0.0 - - - - - - -
13/08:30am 33.0 N 14 22 - - 0.0 - - - - - - -
13/08:00am 32.1 NNE 13 18 - - 0.0 - - - - - - -
13/07:30am 32.0 NNE 11 18 - - 0.0 - - - - - - -
13/07:00am 31.3 NNE 13 21 - - 0.0 - - - - - - -
13/06:30am 31.1 NNE 13 18 - - 0.0 - - - - - - -
13/06:00am 30.8 NNE 13 20 - - 0.0 - - - - - - -
13/05:30am 30.7 NNE 12 19 - - 0.0 - - - - - - -
13/05:00am 30.8 NNE 11 18 - - 0.0 - - - - - - -
13/04:30am 30.0 NE 9 13 - - 0.0 - - - - - - -
13/04:00am 29.1 ENE 7 10 - - 0.0 - - - - - - -
13/03:30am 28.9 ENE 8 11 - - 0.0 - - - - - - -
13/03:00am 29.0 ENE 10 14 - - 0.0 - - - - - - -
13/02:30am 29.1 NE 9 14 - - 0.0 - - - - - - -
13/02:00am 29.4 ENE 10 15 - - 0.0 - - - - - - -
13/01:30am 29.4 ENE 11 16 - - 0.0 - - - - - - -
13/01:00am 28.9 E 9 15 - - 0.0 - - - - - - -
13/12:30am 27.3 E 6 12 - - 0.0 - - - - - - -
13/12:00am 27.4 ESE 9 13 - - 0.0 - - - - - - -
 
Date/Time
CDT
Temp
°C
Wind Pressure Rain since
9am
mm
Weather Cloud Vis
km
Sea
Height
m
Swell
Dir  Spd
kts
Gust
kts
hPa Trend Height
m
Period
s
Dir
12/11:30pm 26.9 E 10 15 - - 0.0 - - - - - - -
12/11:00pm 27.6 E 11 15 - - 0.0 - - - - - - -
12/10:30pm 29.1 E 7 13 - - 0.0 - - - - - - -
12/10:00pm 28.5 E 4 7 - - 0.0 - - - - - - -
12/09:30pm 28.9 E 6 14 - - 0.0 - - - - - - -
12/09:00pm 30.0 E 5 7 - - 0.0 - - - - - - -
12/08:30pm 30.9 E 5 7 - - 0.0 - - - - - - -
12/08:00pm 32.7 ESE 3 3 - - 0.0 - - - - - - -
12/07:30pm 33.3 SSW 1 3 - - 0.0 - - - - - - -
12/07:00pm 33.1 SSW 2 3 - - 0.0 - - - - - - -
12/06:30pm 34.5 WSW 3 4 - - 0.0 - - - - - - -
12/06:00pm 35.5 W 5 7 - - 0.0 - - - - - - -
12/05:30pm 36.1 NW 5 8 - - 0.0 - - - - - - -
12/05:00pm 35.9 NW 6 8 - - 0.0 - - - - - - -
12/04:30pm 36.5 WNW 5 8 - - 0.0 - - - - - - -
12/04:00pm 35.0 W 6 9 - - 0.0 - - - - - - -
12/03:30pm 35.5 WNW 6 9 - - 0.0 - - - - - - -
12/03:00pm 35.3 WNW 5 10 - - 0.0 - - - - - - -
12/02:30pm 34.8 NNW 5 10 - - 0.0 - - - - - - -
12/02:00pm 33.7 NNW 6 9 - - 0.0 - - - - - - -
12/01:30pm 34.8 NNW 6 10 - - 0.0 - - - - - - -
12/01:00pm 32.8 NW 4 7 - - 0.0 - - - - - - -
12/12:30pm 30.8 WNW 6 8 - - 0.0 - - - - - - -
12/12:00pm 30.9 WNW 5 7 - - 0.0 - - - - - - -
12/11:30am 29.1 WNW 5 7 - - 0.0 - - - - - - -
12/11:00am 28.5 W 3 5 - - 0.0 - - - - - - -
12/10:30am 24.9 W 4 6 - - 0.0 - - - - - - -
12/10:00am 24.6 W 4 6 - - 0.0 - - - - - - -
12/09:30am 24.3 W 3 5 - - 0.0 - - - - - - -
12/09:00am 23.6 WSW 2 3 - - 0.0 - - - - - - -
12/08:30am 22.4 WSW 2 3 - - 0.0 - - - - - - -
12/08:00am 21.8 ENE 1 2 - - 0.0 - - - - - - -
12/07:30am 20.8 E 4 6 - - 0.0 - - - - - - -
12/07:00am 19.7 E 3 5 - - 0.0 - - - - - - -
12/06:30am 17.8 NNE 3 4 - - 0.0 - - - - - - -
12/06:00am 18.4 E 5 11 - - 0.0 - - - - - - -
12/05:30am 18.2 ENE 11 16 - - 0.0 - - - - - - -
12/05:00am 17.5 ENE 11 16 - - 0.0 - - - - - - -
12/04:30am 16.7 E 10 15 - - 0.0 - - - - - - -
12/04:00am 16.1 ESE 8 10 - - 0.0 - - - - - - -
12/03:30am 16.2 E 8 12 - - 0.0 - - - - - - -
12/03:00am 16.1 E 10 15 - - 0.0 - - - - - - -
12/02:30am 15.9 E 7 11 - - 0.0 - - - - - - -
12/02:00am 15.9 E 9 14 - - 0.0 - - - - - - -
12/01:30am 15.8 E 6 9 - - 0.0 - - - - - - -
12/01:00am 15.6 E 8 15 - - 0.0 - - - - - - -
12/12:30am 14.9 E 12 21 - - 0.0 - - - - - - -
12/12:00am 15.0 ESE 13 20 - - 0.0 - - - - - - -
 
Date/Time
CDT
Temp
°C
Wind Pressure Rain since
9am
mm
Weather Cloud Vis
km
Sea
Height
m
Swell
Dir  Spd
kts
Gust
kts
hPa Trend Height
m
Period
s
Dir
11/11:30pm 15.6 E 11 16 - - 0.0 - - - - - - -
11/11:00pm 15.8 ESE 16 23 - - 0.0 - - - - - - -
11/10:30pm 16.1 E 10 17 - - 0.0 - - - - - - -
11/10:00pm 16.5 E 11 16 - - 0.0 - - - - - - -
11/09:30pm 17.1 E 12 19 - - 0.0 - - - - - - -
11/09:00pm 18.0 ESE 12 17 - - 0.0 - - - - - - -
11/08:30pm 19.4 ESE 12 18 - - 0.0 - - - - - - -
11/08:00pm 21.4 ESE 10 14 - - 0.0 - - - - - - -
11/07:30pm 22.8 SE 11 15 - - 0.0 - - - - - - -
11/07:00pm 23.9 ESE 10 15 - - 0.0 - - - - - - -
11/06:30pm 24.1 SE 13 16 - - 0.0 - - - - - - -
11/06:00pm 25.7 SE 11 16 - - 0.0 - - - - - - -
11/05:30pm 26.7 SE 12 16 - - 0.0 - - - - - - -
11/05:00pm 27.9 SE 9 11 - - 0.0 - - - - - - -
11/04:30pm 28.4 SE 9 13 - - 0.0 - - - - - - -
11/04:00pm 28.3 SSE 9 13 - - 0.0 - - - - - - -
11/03:30pm 28.7 WSW 7 10 - - 0.0 - - - - - - -
11/03:00pm 27.4 WSW 8 11 - - 0.0 - - - - - - -
11/02:30pm 27.3 WSW 6 9 - - 0.0 - - - - - - -
11/02:00pm 26.2 W 7 10 - - 0.0 - - - - - - -
11/01:30pm 26.0 NW 7 9 - - 0.0 - - - - - - -
11/01:00pm 25.4 WNW 7 10 - - 0.0 - - - - - - -
11/12:30pm 24.9 WNW 7 9 - - 0.0 - - - - - - -
11/12:00pm 25.2 WNW 7 10 - - 0.0 - - - - - - -
11/11:30am 25.5 SE 4 7 - - 0.0 - - - - - - -
11/11:00am 24.6 ESE 5 8 - - 0.0 - - - - - - -
11/10:30am 23.3 SE 6 8 - - 0.0 - - - - - - -
11/10:00am 22.4 ESE 8 11 - - 0.0 - - - - - - -
11/09:30am 21.3 ESE 9 13 - - 0.0 - - - - - - -

Other Formats:

Comma delimited format used in spreadsheet applications
http://www.bom.gov.au/fwo/IDS60701/IDS60701.94808.axf

JavaScript Object Notation format (JSON) in row-major order
http://www.bom.gov.au/fwo/IDS60701/IDS60701.94808.json